首页
METAR-TAF:

METAR-TAF

机场 :

赞詹, 伊朗

纬度: 36-41N, 经度: 048-29E, 海拔: 1663米

当前天气观测

该预报发布于16分钟前的10:00 UTC
风速10节,风向
温度 0°C
湿度 93%
气压 1014 hPa
能見度: 6000
少量云层高于3000英尺, 积雨云.
多云层高于3500英尺
阴天层高于8000英尺
小雪

METAR: OITZ 191000Z 10010KT 6000 -SN FEW030CB BKN035 OVC080 00/M01 Q1014

时间: 13:46 (10:16 UTC)


TAF: 丢失

超过4000个机场的气象观测和天气预报(METAR&TAF报告)。

可查询的气象台以黄色和红色小点在地图上表示。

将鼠标移到小点上方,可查看气象台名称。

然后点击查看天气观测和预报。

如需切换地图:点击带黑十字的绿色按钮放大地图;点击带横线的绿色按钮缩小地图;或者点击绿色箭头查看邻近地区的地图。


METAR-TAF: